Le Grand, CA (95333)

9:08 PM PST on February 12, 2016 (GMT -0800)
Flying-M Ranch | | Change Station
CLOSE
Current Station
Personal Weather Station
Location: Planada, CA
Elevation: 387 ft
Nearby Weather Stations

Elev 387 ft 37.38 °N, 120.33 °W | Updated 10 minutes ago

Partly Cloudy
Partly Cloudy
55.6 °F
Feels Like 55.6 °F
N
1.0
Wind Variable Wind from NNW
Gusts 2.0 mph

Today
High -- | Low -- °F
--% Chance of Precip.
Yesterday
High -- | Low -- °F
Precip. -- in
Pressure 30.17 in
Visibility 5.0 miles
Clouds Clear
Dew Point 51 °F
Humidity 85%
Rainfall 0.00 in
Snow Depth Not available.
6:53 AM 5:37 PM
Waxing Crescent, 27% visible
METAR KMCE 130453Z AUTO 00000KT 5SM HZ CLR 12/09 A3016 RMK AO2 SLP214 T01220094
Pressure 30.17 in
Visibility 5.0 miles
Clouds Clear
Dew Point 51 °F
Humidity 85%
Rainfall 0.00 in
Snow Depth Not available.
6:53 AM 5:37 PM
Waxing Crescent, 27% visible
METAR KMCE 130453Z AUTO 00000KT 5SM HZ CLR 12/09 A3016 RMK AO2 SLP214 T01220094

10-Day Weather Forecast

Almanac

Astronomy

Feb. 12, 2016 Rise Set
Actual Time
Civil Twilight
Nautical Twilight
Astronomical Twilight
Moon
Length of Visible Light
Length of Day
Tomorrow will be .
, % of the Moon is Illuminated

Today's Extremes

State Highs State Lows

Community

WunderPhotos

Upload Photos

1,892,501 photos uploaded!

WunderBlog® & News

Nearby

Air Quality

  Air Quality AQ Index Pollutant
Not available.

Snow Depth

Station Depth Elevation

Earthquake Activity

City Distance Mag. Time & Date
Minimum magnitude displayed is 2.5.

Coastal Water Temperatures

Place Temperature

Stations

Nearby Weather Stations

Station Location Temp. Windchill Dew Point Humidity Wind Precip. Elev Updated Type
                   

Watches & Warnings

There are currently no watches in effect.